sensor_id;sensor_type;location;lat;lon;timestamp;temperature;humidity
8709;DHT22;4391;48.678;9.280;2022-12-15T00:00:00;-1.60;99.90
8709;DHT22;4391;48.678;9.280;2022-12-15T00:02:45;-1.60;99.90
8709;DHT22;4391;48.678;9.280;2022-12-15T00:05:30;-1.60;99.90
8709;DHT22;4391;48.678;9.280;2022-12-15T00:08:14;-1.60;99.90
8709;DHT22;4391;48.678;9.280;2022-12-15T00:11:00;-1.70;99.90
8709;DHT22;4391;48.678;9.280;2022-12-15T00:13:45;-1.70;99.90
8709;DHT22;4391;48.678;9.280;2022-12-15T00:16:29;-1.70;99.90
8709;DHT22;4391;48.678;9.280;2022-12-15T00:19:13;-1.80;99.90
8709;DHT22;4391;48.678;9.280;2022-12-15T00:21:58;-1.70;99.90
8709;DHT22;4391;48.678;9.280;2022-12-15T00:24:43;-1.80;99.90
8709;DHT22;4391;48.678;9.280;2022-12-15T00:27:27;-1.70;99.90
8709;DHT22;4391;48.678;9.280;2022-12-15T00:30:12;-1.70;99.90
8709;DHT22;4391;48.678;9.280;2022-12-15T00:32:56;-1.70;99.90
8709;DHT22;4391;48.678;9.280;2022-12-15T00:35:40;-1.70;99.90
8709;DHT22;4391;48.678;9.280;2022-12-15T00:38:26;-1.70;99.90
8709;DHT22;4391;48.678;9.280;2022-12-15T00:41:13;-1.70;99.90
8709;DHT22;4391;48.678;9.280;2022-12-15T00:43:40;-1.70;99.90
8709;DHT22;4391;48.678;9.280;2022-12-15T00:46:07;-1.70;99.90
8709;DHT22;4391;48.678;9.280;2022-12-15T00:48:51;-1.70;99.90
8709;DHT22;4391;48.678;9.280;2022-12-15T00:51:19;-1.70;99.90
8709;DHT22;4391;48.678;9.280;2022-12-15T00:53:46;-1.70;99.90
8709;DHT22;4391;48.678;9.280;2022-12-15T00:56:30;-1.70;99.90
8709;DHT22;4391;48.678;9.280;2022-12-15T00:59:15;-1.70;99.90
8709;DHT22;4391;48.678;9.280;2022-12-15T01:02:01;-1.70;99.90
8709;DHT22;4391;48.678;9.280;2022-12-15T01:04:45;-1.70;99.90
8709;DHT22;4391;48.678;9.280;2022-12-15T01:07:30;-1.70;99.90
8709;DHT22;4391;48.678;9.280;2022-12-15T01:10:15;-1.70;99.90
8709;DHT22;4391;48.678;9.280;2022-12-15T01:13:00;-1.70;99.90
8709;DHT22;4391;48.678;9.280;2022-12-15T01:15:44;-1.70;99.90
8709;DHT22;4391;48.678;9.280;2022-12-15T01:18:28;-1.70;99.90
8709;DHT22;4391;48.678;9.280;2022-12-15T01:21:15;-1.70;99.90
8709;DHT22;4391;48.678;9.280;2022-12-15T01:23:42;-1.70;99.90
8709;DHT22;4391;48.678;9.280;2022-12-15T01:26:10;-1.70;99.90
8709;DHT22;4391;48.678;9.280;2022-12-15T01:28:37;-1.70;99.90
8709;DHT22;4391;48.678;9.280;2022-12-15T01:31:09;-1.70;99.90
8709;DHT22;4391;48.678;9.280;2022-12-15T01:33:36;-1.70;99.90
8709;DHT22;4391;48.678;9.280;2022-12-15T01:36:04;-1.70;99.90
8709;DHT22;4391;48.678;9.280;2022-12-15T01:38:31;-1.60;99.90
8709;DHT22;4391;48.678;9.280;2022-12-15T01:41:01;-1.70;99.90
8709;DHT22;4391;48.678;9.280;2022-12-15T01:43:32;-1.60;99.90
8709;DHT22;4391;48.678;9.280;2022-12-15T01:46:04;-1.60;99.90
8709;DHT22;4391;48.678;9.280;2022-12-15T01:48:39;-1.60;99.90
8709;DHT22;4391;48.678;9.280;2022-12-15T01:51:17;-1.60;99.90
8709;DHT22;4391;48.678;9.280;2022-12-15T01:53:52;-1.70;99.90
8709;DHT22;4391;48.678;9.280;2022-12-15T01:56:20;-1.70;99.90
8709;DHT22;4391;48.678;9.280;2022-12-15T01:58:50;-1.70;99.90
8709;DHT22;4391;48.678;9.280;2022-12-15T02:01:18;-1.70;99.90
8709;DHT22;4391;48.678;9.280;2022-12-15T02:03:47;-1.70;99.90
8709;DHT22;4391;48.678;9.280;2022-12-15T02:06:14;-1.70;99.90
8709;DHT22;4391;48.678;9.280;2022-12-15T02:08:44;-1.70;99.90
8709;DHT22;4391;48.678;9.280;2022-12-15T02:11:46;-1.70;99.90
8709;DHT22;4391;48.678;9.280;2022-12-15T02:14:24;-1.70;99.90
8709;DHT22;4391;48.678;9.280;2022-12-15T02:17:00;-1.70;99.90
8709;DHT22;4391;48.678;9.280;2022-12-15T02:22:50;-1.70;99.90
8709;DHT22;4391;48.678;9.280;2022-12-15T02:25:43;-1.70;99.90
8709;DHT22;4391;48.678;9.280;2022-12-15T02:28:20;-1.70;99.90
8709;DHT22;4391;48.678;9.280;2022-12-15T02:30:59;-1.70;99.90
8709;DHT22;4391;48.678;9.280;2022-12-15T02:33:51;-1.70;99.90
8709;DHT22;4391;48.678;9.280;2022-12-15T02:36:24;-1.70;99.90
8709;DHT22;4391;48.678;9.280;2022-12-15T02:38:52;-1.70;99.90
8709;DHT22;4391;48.678;9.280;2022-12-15T02:41:32;-1.70;99.90
8709;DHT22;4391;48.678;9.280;2022-12-15T02:44:01;-1.70;99.90
8709;DHT22;4391;48.678;9.280;2022-12-15T02:46:35;-1.70;99.90
8709;DHT22;4391;48.678;9.280;2022-12-15T02:49:13;-1.70;99.90
8709;DHT22;4391;48.678;9.280;2022-12-15T02:51:51;-1.70;99.90
8709;DHT22;4391;48.678;9.280;2022-12-15T02:54:34;-1.70;99.90
8709;DHT22;4391;48.678;9.280;2022-12-15T02:57:09;-1.70;99.90
8709;DHT22;4391;48.678;9.280;2022-12-15T02:59:41;-1.70;99.90
8709;DHT22;4391;48.678;9.280;2022-12-15T03:02:12;-1.80;99.90
8709;DHT22;4391;48.678;9.280;2022-12-15T03:04:41;-1.80;99.90
8709;DHT22;4391;48.678;9.280;2022-12-15T03:07:09;-1.80;99.90
8709;DHT22;4391;48.678;9.280;2022-12-15T03:09:36;-1.80;99.90
8709;DHT22;4391;48.678;9.280;2022-12-15T03:12:03;-1.80;99.90
8709;DHT22;4391;48.678;9.280;2022-12-15T03:14:30;-1.80;99.90
8709;DHT22;4391;48.678;9.280;2022-12-15T03:16:57;-1.70;99.90
8709;DHT22;4391;48.678;9.280;2022-12-15T03:19:25;-1.80;99.90
8709;DHT22;4391;48.678;9.280;2022-12-15T03:21:52;-1.80;99.90
8709;DHT22;4391;48.678;9.280;2022-12-15T03:24:19;-1.70;99.90
8709;DHT22;4391;48.678;9.280;2022-12-15T03:26:46;-1.70;99.90
8709;DHT22;4391;48.678;9.280;2022-12-15T03:29:14;-1.70;99.90
8709;DHT22;4391;48.678;9.280;2022-12-15T03:31:41;-1.70;99.90
8709;DHT22;4391;48.678;9.280;2022-12-15T03:34:08;-1.70;99.90
8709;DHT22;4391;48.678;9.280;2022-12-15T03:36:37;-1.70;99.90
8709;DHT22;4391;48.678;9.280;2022-12-15T03:39:04;-1.80;99.90
8709;DHT22;4391;48.678;9.280;2022-12-15T03:41:31;-1.70;99.90
8709;DHT22;4391;48.678;9.280;2022-12-15T03:43:59;-1.70;99.90
8709;DHT22;4391;48.678;9.280;2022-12-15T03:46:26;-1.70;99.90
8709;DHT22;4391;48.678;9.280;2022-12-15T03:48:53;-1.70;99.90
8709;DHT22;4391;48.678;9.280;2022-12-15T03:51:23;-1.70;99.90
8709;DHT22;4391;48.678;9.280;2022-12-15T03:53:51;-1.70;99.90
8709;DHT22;4391;48.678;9.280;2022-12-15T03:56:18;-1.70;99.90
8709;DHT22;4391;48.678;9.280;2022-12-15T03:58:45;-1.70;99.90
8709;DHT22;4391;48.678;9.280;2022-12-15T04:01:17;-1.70;99.90
8709;DHT22;4391;48.678;9.280;2022-12-15T04:03:45;-1.70;99.90
8709;DHT22;4391;48.678;9.280;2022-12-15T04:06:12;-1.70;99.90
8709;DHT22;4391;48.678;9.280;2022-12-15T04:08:39;-1.70;99.90
8709;DHT22;4391;48.678;9.280;2022-12-15T04:11:07;-1.70;99.90
8709;DHT22;4391;48.678;9.280;2022-12-15T04:13:34;-1.70;99.90
8709;DHT22;4391;48.678;9.280;2022-12-15T04:16:01;-1.70;99.90
8709;DHT22;4391;48.678;9.280;2022-12-15T04:18:28;-1.70;99.90
8709;DHT22;4391;48.678;9.280;2022-12-15T04:20:55;-1.60;99.90
8709;DHT22;4391;48.678;9.280;2022-12-15T04:23:22;-1.60;99.90
8709;DHT22;4391;48.678;9.280;2022-12-15T04:25:49;-1.60;99.90
8709;DHT22;4391;48.678;9.280;2022-12-15T04:28:35;-1.70;99.90
8709;DHT22;4391;48.678;9.280;2022-12-15T04:31:21;-1.70;99.90
8709;DHT22;4391;48.678;9.280;2022-12-15T04:34:09;-1.70;99.90
8709;DHT22;4391;48.678;9.280;2022-12-15T04:36:54;-1.70;99.90
8709;DHT22;4391;48.678;9.280;2022-12-15T04:39:40;-1.70;99.90
8709;DHT22;4391;48.678;9.280;2022-12-15T04:42:25;-1.70;99.90
8709;DHT22;4391;48.678;9.280;2022-12-15T04:45:11;-1.70;99.90
8709;DHT22;4391;48.678;9.280;2022-12-15T04:47:56;-1.70;99.90
8709;DHT22;4391;48.678;9.280;2022-12-15T04:50:40;-1.70;99.90
8709;DHT22;4391;48.678;9.280;2022-12-15T04:53:25;-1.70;99.90
8709;DHT22;4391;48.678;9.280;2022-12-15T04:56:10;-1.70;99.90
8709;DHT22;4391;48.678;9.280;2022-12-15T04:58:55;-1.70;99.90
8709;DHT22;4391;48.678;9.280;2022-12-15T05:01:40;-1.70;99.90
8709;DHT22;4391;48.678;9.280;2022-12-15T05:04:25;-1.70;99.90
8709;DHT22;4391;48.678;9.280;2022-12-15T05:07:09;-1.70;99.90
8709;DHT22;4391;48.678;9.280;2022-12-15T05:09:53;-1.70;99.90
8709;DHT22;4391;48.678;9.280;2022-12-15T05:12:37;-1.70;99.90
8709;DHT22;4391;48.678;9.280;2022-12-15T05:15:22;-1.70;99.90
8709;DHT22;4391;48.678;9.280;2022-12-15T05:18:07;-1.70;99.90
8709;DHT22;4391;48.678;9.280;2022-12-15T05:20:51;-1.70;99.90
8709;DHT22;4391;48.678;9.280;2022-12-15T05:23:36;-1.70;99.90
8709;DHT22;4391;48.678;9.280;2022-12-15T05:26:20;-1.70;99.90
8709;DHT22;4391;48.678;9.280;2022-12-15T05:29:04;-1.80;99.90
8709;DHT22;4391;48.678;9.280;2022-12-15T05:31:49;-1.70;99.90
8709;DHT22;4391;48.678;9.280;2022-12-15T05:34:22;-1.70;99.90
8709;DHT22;4391;48.678;9.280;2022-12-15T05:36:51;-1.70;99.90
8709;DHT22;4391;48.678;9.280;2022-12-15T05:39:18;-1.70;99.90
8709;DHT22;4391;48.678;9.280;2022-12-15T05:41:45;-1.70;99.90
8709;DHT22;4391;48.678;9.280;2022-12-15T05:44:13;-1.70;99.90
8709;DHT22;4391;48.678;9.280;2022-12-15T05:46:40;-1.70;99.90
8709;DHT22;4391;48.678;9.280;2022-12-15T05:49:08;-1.70;99.90
8709;DHT22;4391;48.678;9.280;2022-12-15T05:51:38;-1.70;99.90
8709;DHT22;4391;48.678;9.280;2022-12-15T05:54:06;-1.70;99.90
8709;DHT22;4391;48.678;9.280;2022-12-15T05:56:34;-1.70;99.90
8709;DHT22;4391;48.678;9.280;2022-12-15T05:59:01;-1.70;99.90
8709;DHT22;4391;48.678;9.280;2022-12-15T06:01:28;-1.70;99.90
8709;DHT22;4391;48.678;9.280;2022-12-15T06:03:56;-1.70;99.90
8709;DHT22;4391;48.678;9.280;2022-12-15T06:06:24;-1.70;99.90
8709;DHT22;4391;48.678;9.280;2022-12-15T06:08:53;-1.70;99.90
8709;DHT22;4391;48.678;9.280;2022-12-15T06:11:20;-1.70;99.90
8709;DHT22;4391;48.678;9.280;2022-12-15T06:13:47;-1.70;99.90
8709;DHT22;4391;48.678;9.280;2022-12-15T06:16:17;-1.70;99.90
8709;DHT22;4391;48.678;9.280;2022-12-15T06:18:46;-1.70;99.90
8709;DHT22;4391;48.678;9.280;2022-12-15T06:21:16;-1.70;99.90
8709;DHT22;4391;48.678;9.280;2022-12-15T06:23:43;-1.70;99.90
8709;DHT22;4391;48.678;9.280;2022-12-15T06:26:13;-1.70;99.90
8709;DHT22;4391;48.678;9.280;2022-12-15T06:28:41;-1.70;99.90
8709;DHT22;4391;48.678;9.280;2022-12-15T06:31:09;-1.70;99.90
8709;DHT22;4391;48.678;9.280;2022-12-15T06:33:37;-1.60;99.90
8709;DHT22;4391;48.678;9.280;2022-12-15T06:36:07;-1.70;99.90
8709;DHT22;4391;48.678;9.280;2022-12-15T06:38:34;-1.70;99.90
8709;DHT22;4391;48.678;9.280;2022-12-15T06:41:04;-1.70;99.90
8709;DHT22;4391;48.678;9.280;2022-12-15T06:43:33;-1.70;99.90
8709;DHT22;4391;48.678;9.280;2022-12-15T06:46:00;-1.70;99.90
8709;DHT22;4391;48.678;9.280;2022-12-15T06:48:27;-1.70;99.90
8709;DHT22;4391;48.678;9.280;2022-12-15T06:50:54;-1.70;99.90
8709;DHT22;4391;48.678;9.280;2022-12-15T06:53:23;-1.80;99.90
8709;DHT22;4391;48.678;9.280;2022-12-15T06:55:50;-1.80;99.90
8709;DHT22;4391;48.678;9.280;2022-12-15T06:58:17;-1.70;99.90
8709;DHT22;4391;48.678;9.280;2022-12-15T07:00:45;-1.70;99.90
8709;DHT22;4391;48.678;9.280;2022-12-15T07:03:13;-1.70;99.90
8709;DHT22;4391;48.678;9.280;2022-12-15T07:05:41;-1.70;99.90
8709;DHT22;4391;48.678;9.280;2022-12-15T07:08:08;-1.70;99.90
8709;DHT22;4391;48.678;9.280;2022-12-15T07:10:37;-1.70;99.90
8709;DHT22;4391;48.678;9.280;2022-12-15T07:13:05;-1.70;99.90
8709;DHT22;4391;48.678;9.280;2022-12-15T07:15:32;-1.70;99.90
8709;DHT22;4391;48.678;9.280;2022-12-15T07:18:01;-1.70;99.90
8709;DHT22;4391;48.678;9.280;2022-12-15T07:20:28;-1.70;99.90
8709;DHT22;4391;48.678;9.280;2022-12-15T07:22:55;-1.60;99.90
8709;DHT22;4391;48.678;9.280;2022-12-15T07:25:22;-1.60;99.90
8709;DHT22;4391;48.678;9.280;2022-12-15T07:27:49;-1.60;99.90
8709;DHT22;4391;48.678;9.280;2022-12-15T07:30:16;-1.60;99.90
8709;DHT22;4391;48.678;9.280;2022-12-15T07:32:43;-1.60;99.90
8709;DHT22;4391;48.678;9.280;2022-12-15T07:35:12;-1.60;99.90
8709;DHT22;4391;48.678;9.280;2022-12-15T07:37:39;-1.60;99.90
8709;DHT22;4391;48.678;9.280;2022-12-15T07:40:07;-1.60;99.90
8709;DHT22;4391;48.678;9.280;2022-12-15T07:42:34;-1.50;99.90
8709;DHT22;4391;48.678;9.280;2022-12-15T07:45:01;-1.50;99.90
8709;DHT22;4391;48.678;9.280;2022-12-15T07:47:28;-1.50;99.90
8709;DHT22;4391;48.678;9.280;2022-12-15T07:49:55;-1.40;99.90
8709;DHT22;4391;48.678;9.280;2022-12-15T07:52:23;-1.30;99.90
8709;DHT22;4391;48.678;9.280;2022-12-15T07:54:50;-1.30;99.90
8709;DHT22;4391;48.678;9.280;2022-12-15T07:57:18;-1.20;99.90
8709;DHT22;4391;48.678;9.280;2022-12-15T07:59:45;-1.20;99.90
8709;DHT22;4391;48.678;9.280;2022-12-15T08:02:12;-1.20;99.90
8709;DHT22;4391;48.678;9.280;2022-12-15T08:04:40;-1.10;99.90
8709;DHT22;4391;48.678;9.280;2022-12-15T08:07:07;-1.00;99.90
8709;DHT22;4391;48.678;9.280;2022-12-15T08:09:36;-1.00;99.90
8709;DHT22;4391;48.678;9.280;2022-12-15T08:12:03;-1.00;99.90
8709;DHT22;4391;48.678;9.280;2022-12-15T08:14:30;-0.90;99.90
8709;DHT22;4391;48.678;9.280;2022-12-15T08:16:56;-0.90;99.90
8709;DHT22;4391;48.678;9.280;2022-12-15T08:19:23;-0.80;99.90
8709;DHT22;4391;48.678;9.280;2022-12-15T08:21:50;-0.70;99.90
8709;DHT22;4391;48.678;9.280;2022-12-15T08:24:17;-0.60;99.90
8709;DHT22;4391;48.678;9.280;2022-12-15T08:26:45;-0.60;99.90
8709;DHT22;4391;48.678;9.280;2022-12-15T08:29:13;-0.50;97.20
8709;DHT22;4391;48.678;9.280;2022-12-15T08:31:40;-0.40;90.30
8709;DHT22;4391;48.678;9.280;2022-12-15T08:34:07;-0.30;88.30
8709;DHT22;4391;48.678;9.280;2022-12-15T08:36:34;-0.20;79.00
8709;DHT22;4391;48.678;9.280;2022-12-15T08:39:01;-0.20;72.00
8709;DHT22;4391;48.678;9.280;2022-12-15T08:41:31;-0.10;51.70
8709;DHT22;4391;48.678;9.280;2022-12-15T08:44:00;-0.10;54.60
8709;DHT22;4391;48.678;9.280;2022-12-15T08:46:29;0.00;54.60
8709;DHT22;4391;48.678;9.280;2022-12-15T08:48:56;0.00;46.60
8709;DHT22;4391;48.678;9.280;2022-12-15T08:51:25;0.00;47.10
8709;DHT22;4391;48.678;9.280;2022-12-15T08:53:53;0.10;35.80
8709;DHT22;4391;48.678;9.280;2022-12-15T08:56:21;0.00;24.00
8709;DHT22;4391;48.678;9.280;2022-12-15T08:58:49;0.00;23.00
8709;DHT22;4391;48.678;9.280;2022-12-15T09:01:22;0.00;23.90
8709;DHT22;4391;48.678;9.280;2022-12-15T09:03:49;0.10;36.40
8709;DHT22;4391;48.678;9.280;2022-12-15T09:06:19;0.20;46.10
8709;DHT22;4391;48.678;9.280;2022-12-15T09:08:46;0.20;42.90
8709;DHT22;4391;48.678;9.280;2022-12-15T09:11:13;0.30;35.30
8709;DHT22;4391;48.678;9.280;2022-12-15T09:13:40;0.40;32.30
8709;DHT22;4391;48.678;9.280;2022-12-15T09:16:12;0.60;22.50
8709;DHT22;4391;48.678;9.280;2022-12-15T09:18:42;0.70;13.80
8709;DHT22;4391;48.678;9.280;2022-12-15T09:21:10;0.80;1.00
8709;DHT22;4391;48.678;9.280;2022-12-15T09:23:37;1.00;1.00
8709;DHT22;4391;48.678;9.280;2022-12-15T09:26:06;1.20;1.00
8709;DHT22;4391;48.678;9.280;2022-12-15T09:28:34;1.40;1.00
8709;DHT22;4391;48.678;9.280;2022-12-15T09:31:02;1.60;1.00
8709;DHT22;4391;48.678;9.280;2022-12-15T09:33:29;1.70;1.00
8709;DHT22;4391;48.678;9.280;2022-12-15T09:35:57;1.80;1.00
8709;DHT22;4391;48.678;9.280;2022-12-15T09:38:24;1.80;1.00
8709;DHT22;4391;48.678;9.280;2022-12-15T09:40:51;1.80;1.00
8709;DHT22;4391;48.678;9.280;2022-12-15T09:43:21;1.70;1.00
8709;DHT22;4391;48.678;9.280;2022-12-15T09:45:51;1.70;1.00
8709;DHT22;4391;48.678;9.280;2022-12-15T09:48:24;1.70;1.00
8709;DHT22;4391;48.678;9.280;2022-12-15T09:50:54;1.80;1.00
8709;DHT22;4391;48.678;9.280;2022-12-15T09:53:25;1.80;1.00
8709;DHT22;4391;48.678;9.280;2022-12-15T09:55:58;1.70;1.00
8709;DHT22;4391;48.678;9.280;2022-12-15T09:58:37;1.70;1.00
8709;DHT22;4391;48.678;9.280;2022-12-15T10:01:13;1.70;1.00
8709;DHT22;4391;48.678;9.280;2022-12-15T10:03:50;1.80;1.00
8709;DHT22;4391;48.678;9.280;2022-12-15T10:06:19;1.80;1.00
8709;DHT22;4391;48.678;9.280;2022-12-15T10:08:52;1.80;1.00
8709;DHT22;4391;48.678;9.280;2022-12-15T10:11:35;1.70;1.00
8709;DHT22;4391;48.678;9.280;2022-12-15T10:14:12;1.70;1.00
8709;DHT22;4391;48.678;9.280;2022-12-15T10:16:49;1.70;1.00
8709;DHT22;4391;48.678;9.280;2022-12-15T10:19:25;1.70;1.00
8709;DHT22;4391;48.678;9.280;2022-12-15T10:21:55;1.70;1.00
8709;DHT22;4391;48.678;9.280;2022-12-15T10:24:24;1.70;1.00
8709;DHT22;4391;48.678;9.280;2022-12-15T10:26:58;1.60;1.00
8709;DHT22;4391;48.678;9.280;2022-12-15T10:29:35;1.60;1.00
8709;DHT22;4391;48.678;9.280;2022-12-15T10:32:15;1.60;1.00
8709;DHT22;4391;48.678;9.280;2022-12-15T10:34:42;1.60;1.00
8709;DHT22;4391;48.678;9.280;2022-12-15T10:37:13;1.60;1.00
8709;DHT22;4391;48.678;9.280;2022-12-15T10:39:44;1.70;1.00
8709;DHT22;4391;48.678;9.280;2022-12-15T10:42:18;1.70;1.00
8709;DHT22;4391;48.678;9.280;2022-12-15T10:44:48;1.60;1.00
8709;DHT22;4391;48.678;9.280;2022-12-15T10:47:19;1.70;1.00
8709;DHT22;4391;48.678;9.280;2022-12-15T10:49:47;1.70;1.00
8709;DHT22;4391;48.678;9.280;2022-12-15T10:52:20;1.60;1.00
8709;DHT22;4391;48.678;9.280;2022-12-15T10:54:52;1.60;1.00
8709;DHT22;4391;48.678;9.280;2022-12-15T10:57:22;1.50;1.00
8709;DHT22;4391;48.678;9.280;2022-12-15T10:59:52;1.50;1.00
8709;DHT22;4391;48.678;9.280;2022-12-15T11:02:28;1.50;1.00
8709;DHT22;4391;48.678;9.280;2022-12-15T11:04:59;1.40;1.00
8709;DHT22;4391;48.678;9.280;2022-12-15T11:07:33;1.40;1.00
8709;DHT22;4391;48.678;9.280;2022-12-15T11:10:14;1.40;1.00
8709;DHT22;4391;48.678;9.280;2022-12-15T11:12:42;1.50;1.00
8709;DHT22;4391;48.678;9.280;2022-12-15T11:15:37;1.50;1.00
8709;DHT22;4391;48.678;9.280;2022-12-15T11:20:52;1.70;1.00
8709;DHT22;4391;48.678;9.280;2022-12-15T11:23:30;1.70;1.00
8709;DHT22;4391;48.678;9.280;2022-12-15T11:26:02;1.70;1.00
8709;DHT22;4391;48.678;9.280;2022-12-15T11:28:35;1.90;1.00
8709;DHT22;4391;48.678;9.280;2022-12-15T11:31:15;1.90;1.00
8709;DHT22;4391;48.678;9.280;2022-12-15T11:33:53;1.90;1.00
8709;DHT22;4391;48.678;9.280;2022-12-15T11:36:43;1.90;1.00
8709;DHT22;4391;48.678;9.280;2022-12-15T11:39:27;2.10;1.00
8709;DHT22;4391;48.678;9.280;2022-12-15T11:42:02;2.20;1.00
8709;DHT22;4391;48.678;9.280;2022-12-15T11:44:40;2.30;1.00
8709;DHT22;4391;48.678;9.280;2022-12-15T11:47:17;2.30;1.00
8709;DHT22;4391;48.678;9.280;2022-12-15T11:50:13;2.30;1.00
8709;DHT22;4391;48.678;9.280;2022-12-15T11:52:49;2.20;1.00
8709;DHT22;4391;48.678;9.280;2022-12-15T11:55:23;2.10;1.00
8709;DHT22;4391;48.678;9.280;2022-12-15T11:58:12;2.10;1.00
8709;DHT22;4391;48.678;9.280;2022-12-15T12:00:50;2.10;1.00
8709;DHT22;4391;48.678;9.280;2022-12-15T12:03:27;2.10;1.00
8709;DHT22;4391;48.678;9.280;2022-12-15T12:06:10;2.20;1.00
8709;DHT22;4391;48.678;9.280;2022-12-15T12:09:07;2.10;1.00
8709;DHT22;4391;48.678;9.280;2022-12-15T12:11:42;2.10;1.00
8709;DHT22;4391;48.678;9.280;2022-12-15T12:14:23;2.20;99.90
8709;DHT22;4391;48.678;9.280;2022-12-15T12:16:59;2.10;99.90
8709;DHT22;4391;48.678;9.280;2022-12-15T12:19:31;2.10;1.00
8709;DHT22;4391;48.678;9.280;2022-12-15T12:22:05;2.10;1.00
8709;DHT22;4391;48.678;9.280;2022-12-15T12:24:38;2.30;1.00
8709;DHT22;4391;48.678;9.280;2022-12-15T12:27:12;2.30;1.00
8709;DHT22;4391;48.678;9.280;2022-12-15T12:29:46;2.30;99.90
8709;DHT22;4391;48.678;9.280;2022-12-15T12:32:19;2.40;99.90
8709;DHT22;4391;48.678;9.280;2022-12-15T12:34:59;2.50;1.00
8709;DHT22;4391;48.678;9.280;2022-12-15T12:37:34;2.70;99.90
8709;DHT22;4391;48.678;9.280;2022-12-15T12:40:05;2.80;99.90
8709;DHT22;4391;48.678;9.280;2022-12-15T12:42:38;3.00;99.90
8709;DHT22;4391;48.678;9.280;2022-12-15T12:45:11;3.00;99.90
8709;DHT22;4391;48.678;9.280;2022-12-15T12:47:41;3.20;1.00
8709;DHT22;4391;48.678;9.280;2022-12-15T12:50:15;3.50;99.90
8709;DHT22;4391;48.678;9.280;2022-12-15T12:52:49;3.50;99.90
8709;DHT22;4391;48.678;9.280;2022-12-15T12:55:26;3.50;9.20
8709;DHT22;4391;48.678;9.280;2022-12-15T12:57:54;3.40;99.90
8709;DHT22;4391;48.678;9.280;2022-12-15T13:00:25;3.40;1.00
8709;DHT22;4391;48.678;9.280;2022-12-15T13:05:44;3.10;45.40
8709;DHT22;4391;48.678;9.280;2022-12-15T13:08:26;2.90;1.00
8709;DHT22;4391;48.678;9.280;2022-12-15T13:10:54;2.70;89.70
8709;DHT22;4391;48.678;9.280;2022-12-15T13:13:42;2.50;99.90
8709;DHT22;4391;48.678;9.280;2022-12-15T13:16:18;2.40;99.90
8709;DHT22;4391;48.678;9.280;2022-12-15T13:18:56;2.30;1.00
8709;DHT22;4391;48.678;9.280;2022-12-15T13:21:54;2.10;1.00
8709;DHT22;4391;48.678;9.280;2022-12-15T13:24:31;2.10;1.00
8709;DHT22;4391;48.678;9.280;2022-12-15T13:27:14;2.10;1.00
8709;DHT22;4391;48.678;9.280;2022-12-15T13:29:55;2.10;1.00
8709;DHT22;4391;48.678;9.280;2022-12-15T13:34:52;2.00;1.00
8709;DHT22;4391;48.678;9.280;2022-12-15T13:37:40;2.00;1.00
8709;DHT22;4391;48.678;9.280;2022-12-15T13:40:28;2.10;1.00
8709;DHT22;4391;48.678;9.280;2022-12-15T13:43:06;2.00;1.00
8709;DHT22;4391;48.678;9.280;2022-12-15T13:45:53;1.90;1.00
8709;DHT22;4391;48.678;9.280;2022-12-15T13:48:32;1.80;1.00
8709;DHT22;4391;48.678;9.280;2022-12-15T13:54:02;1.60;1.00
8709;DHT22;4391;48.678;9.280;2022-12-15T13:56:44;1.50;1.00
8709;DHT22;4391;48.678;9.280;2022-12-15T13:59:18;1.30;1.00
8709;DHT22;4391;48.678;9.280;2022-12-15T14:01:50;1.30;1.00
8709;DHT22;4391;48.678;9.280;2022-12-15T14:04:18;1.30;1.00
8709;DHT22;4391;48.678;9.280;2022-12-15T14:06:48;1.30;1.00
8709;DHT22;4391;48.678;9.280;2022-12-15T14:09:20;1.30;1.00
8709;DHT22;4391;48.678;9.280;2022-12-15T14:11:48;1.20;1.00
8709;DHT22;4391;48.678;9.280;2022-12-15T14:14:19;1.20;14.20
8709;DHT22;4391;48.678;9.280;2022-12-15T14:16:55;1.30;27.50
8709;DHT22;4391;48.678;9.280;2022-12-15T14:19:22;1.40;16.40
8709;DHT22;4391;48.678;9.280;2022-12-15T14:21:51;1.30;8.80
8709;DHT22;4391;48.678;9.280;2022-12-15T14:24:25;1.30;1.80
8709;DHT22;4391;48.678;9.280;2022-12-15T14:26:52;1.20;1.60
8709;DHT22;4391;48.678;9.280;2022-12-15T14:29:20;1.20;1.00
8709;DHT22;4391;48.678;9.280;2022-12-15T14:31:49;1.10;9.80
8709;DHT22;4391;48.678;9.280;2022-12-15T14:34:26;1.10;16.30
8709;DHT22;4391;48.678;9.280;2022-12-15T14:36:56;1.10;18.40
8709;DHT22;4391;48.678;9.280;2022-12-15T14:39:29;1.00;17.70
8709;DHT22;4391;48.678;9.280;2022-12-15T14:41:58;1.00;31.20
8709;DHT22;4391;48.678;9.280;2022-12-15T14:44:29;1.00;32.40
8709;DHT22;4391;48.678;9.280;2022-12-15T14:46:57;0.90;35.00
8709;DHT22;4391;48.678;9.280;2022-12-15T14:49:28;0.90;38.60
8709;DHT22;4391;48.678;9.280;2022-12-15T14:52:00;0.80;42.90
8709;DHT22;4391;48.678;9.280;2022-12-15T14:54:33;0.80;45.10
8709;DHT22;4391;48.678;9.280;2022-12-15T14:57:02;0.80;51.10
8709;DHT22;4391;48.678;9.280;2022-12-15T14:59:39;0.70;46.80
8709;DHT22;4391;48.678;9.280;2022-12-15T15:02:15;0.70;40.10
8709;DHT22;4391;48.678;9.280;2022-12-15T15:04:56;0.70;46.80
8709;DHT22;4391;48.678;9.280;2022-12-15T15:07:26;0.70;54.20
8709;DHT22;4391;48.678;9.280;2022-12-15T15:09:55;0.60;57.10
8709;DHT22;4391;48.678;9.280;2022-12-15T15:12:25;0.60;53.60
8709;DHT22;4391;48.678;9.280;2022-12-15T15:14:57;0.60;49.80
8709;DHT22;4391;48.678;9.280;2022-12-15T15:17:29;0.70;50.20
8709;DHT22;4391;48.678;9.280;2022-12-15T15:20:00;0.60;50.60
8709;DHT22;4391;48.678;9.280;2022-12-15T15:22:37;0.60;56.10
8709;DHT22;4391;48.678;9.280;2022-12-15T15:25:25;0.50;64.90
8709;DHT22;4391;48.678;9.280;2022-12-15T15:28:01;0.50;60.40
8709;DHT22;4391;48.678;9.280;2022-12-15T15:30:28;0.50;64.90
8709;DHT22;4391;48.678;9.280;2022-12-15T15:32:56;0.50;67.80
8709;DHT22;4391;48.678;9.280;2022-12-15T15:35:28;0.50;68.60
8709;DHT22;4391;48.678;9.280;2022-12-15T15:38:00;0.40;76.70
8709;DHT22;4391;48.678;9.280;2022-12-15T15:40:30;0.40;81.20
8709;DHT22;4391;48.678;9.280;2022-12-15T15:42:57;0.40;84.30
8709;DHT22;4391;48.678;9.280;2022-12-15T15:45:25;0.40;90.10
8709;DHT22;4391;48.678;9.280;2022-12-15T15:47:52;0.40;86.30
8709;DHT22;4391;48.678;9.280;2022-12-15T15:50:25;0.50;88.50
8709;DHT22;4391;48.678;9.280;2022-12-15T15:52:53;0.40;90.00
8709;DHT22;4391;48.678;9.280;2022-12-15T15:55:24;0.40;90.60
8709;DHT22;4391;48.678;9.280;2022-12-15T15:57:53;0.40;91.90
8709;DHT22;4391;48.678;9.280;2022-12-15T16:00:22;0.30;95.20
8709;DHT22;4391;48.678;9.280;2022-12-15T16:02:50;0.30;96.70
8709;DHT22;4391;48.678;9.280;2022-12-15T16:05:17;0.30;98.60
8709;DHT22;4391;48.678;9.280;2022-12-15T16:07:46;0.30;99.90
8709;DHT22;4391;48.678;9.280;2022-12-15T16:10:14;0.30;99.60
8709;DHT22;4391;48.678;9.280;2022-12-15T16:12:45;0.30;98.30
8709;DHT22;4391;48.678;9.280;2022-12-15T16:15:19;0.30;99.90
8709;DHT22;4391;48.678;9.280;2022-12-15T16:17:47;0.20;99.90
8709;DHT22;4391;48.678;9.280;2022-12-15T16:20:16;0.30;99.90
8709;DHT22;4391;48.678;9.280;2022-12-15T16:22:46;0.20;99.90
8709;DHT22;4391;48.678;9.280;2022-12-15T16:25:16;0.20;99.90
8709;DHT22;4391;48.678;9.280;2022-12-15T16:27:43;0.20;98.90
8709;DHT22;4391;48.678;9.280;2022-12-15T16:30:15;0.20;99.00
8709;DHT22;4391;48.678;9.280;2022-12-15T16:32:44;0.10;99.60
8709;DHT22;4391;48.678;9.280;2022-12-15T16:35:11;0.10;99.00
8709;DHT22;4391;48.678;9.280;2022-12-15T16:37:38;0.10;99.90
8709;DHT22;4391;48.678;9.280;2022-12-15T16:40:16;0.10;99.90
8709;DHT22;4391;48.678;9.280;2022-12-15T16:42:51;0.10;99.90
8709;DHT22;4391;48.678;9.280;2022-12-15T16:45:20;0.10;99.00
8709;DHT22;4391;48.678;9.280;2022-12-15T16:47:49;0.10;99.20
8709;DHT22;4391;48.678;9.280;2022-12-15T16:50:18;0.20;99.90
8709;DHT22;4391;48.678;9.280;2022-12-15T16:52:46;0.10;96.40
8709;DHT22;4391;48.678;9.280;2022-12-15T16:55:18;0.10;96.40
8709;DHT22;4391;48.678;9.280;2022-12-15T16:57:47;0.10;97.60
8709;DHT22;4391;48.678;9.280;2022-12-15T17:00:17;0.10;97.40
8709;DHT22;4391;48.678;9.280;2022-12-15T17:02:45;0.10;98.30
8709;DHT22;4391;48.678;9.280;2022-12-15T17:05:13;0.10;99.90